KARA/ARA METAR and TAF weather

Enter ICAO airport designator
Station Type Date Time Source
KARA METAR 2021/04/12 02:53 UTC NOAA

KARA 120253Z AUTO 06003KT 10SM CLR 19/11 A2976 RMK AO2 SLP077 T01890111 53009


Station Type Date Time Source
KARA Decoded METAR 2021/04/12 02:53 UTC NOAA

NEW IBERIA ACADIANA REGIONAL, LA, United States (KARA) 30-02N 091-53W 18M
Apr 11, 2021 - 10:53 PM EDT / 2021.04.12 0253 UTC
Wind: from the ENE (060 degrees) at 3 MPH (3 KT):0
Visibility: 10 mile(s):0
Sky conditions: clear
Temperature: 66.0 F (18.9 C)
Dew Point: 52.0 F (11.1 C)
Relative Humidity: 60%
Pressure (altimeter): 29.76 in. Hg (1007 hPa)
Pressure tendency: 0.03 inches (0.9 hPa) higher than three hours ago
ob: KARA 120253Z AUTO 06003KT 10SM CLR 19/11 A2976 RMK AO2 SLP077 T01890111 53009
cycle: 3

Station Type Date Time Source
KARA TAF 2021/04/11 18:24 UTC NOAA

TAF KARA 111720Z 1118/1218 02009KT P6SM SKC
FM120100 VRB03KT P6SM SKC
FM121400 11007KT P6SM SKC

Example: see airport list